createdAt,value
2018-04-22T00:01:57.519Z,16.30
2018-04-22T00:04:25.741Z,16.40
2018-04-22T00:06:53.958Z,16.60
2018-04-22T00:09:22.172Z,16.60
2018-04-22T00:11:50.401Z,16.60
2018-04-22T00:14:18.646Z,16.60
2018-04-22T00:16:46.950Z,16.50
2018-04-22T00:19:15.925Z,16.30
2018-04-22T00:21:44.937Z,16.20
2018-04-22T00:24:13.944Z,16.30
2018-04-22T00:26:42.945Z,16.20
2018-04-22T00:29:11.980Z,16.20
2018-04-22T00:31:40.211Z,16.20
2018-04-22T00:34:08.431Z,16.20
2018-04-22T00:36:36.646Z,16.20
2018-04-22T00:39:04.873Z,16.10
2018-04-22T00:41:33.870Z,15.90
2018-04-22T00:44:02.081Z,15.90
2018-04-22T00:46:30.305Z,15.90
2018-04-22T00:48:58.524Z,15.70
2018-04-22T00:51:26.740Z,15.80
2018-04-22T00:54:06.861Z,15.70
2018-04-22T00:56:35.093Z,15.70
2018-04-22T00:59:03.309Z,15.60
2018-04-22T01:01:32.300Z,15.90
2018-04-22T01:04:00.575Z,15.90
2018-04-22T01:06:28.883Z,15.80
2018-04-22T01:08:57.046Z,15.70
2018-04-22T01:11:25.750Z,15.50
2018-04-22T01:13:54.038Z,15.40
2018-04-22T01:16:22.272Z,15.30
2018-04-22T01:18:50.523Z,15.20
2018-04-22T01:21:18.747Z,15.20
2018-04-22T01:23:47.031Z,15.20
2018-04-22T01:26:16.239Z,15.10
2018-04-22T01:28:44.526Z,15.10
2018-04-22T01:31:13.515Z,15.10
2018-04-22T01:33:41.781Z,15.10
2018-04-22T01:36:10.014Z,15.20
2018-04-22T01:38:39.014Z,15.10
2018-04-22T01:41:07.992Z,15.10
2018-04-22T01:43:36.226Z,15.10
2018-04-22T01:46:04.473Z,14.90
2018-04-22T01:48:32.707Z,14.80
2018-04-22T01:51:00.922Z,14.80
2018-04-22T01:53:29.163Z,14.80
2018-04-22T01:55:58.155Z,14.90
2018-04-22T01:58:26.414Z,14.90
2018-04-22T02:00:54.750Z,14.90
2018-04-22T02:03:23.729Z,14.80
2018-04-22T02:05:51.952Z,14.80
2018-04-22T02:08:20.209Z,14.70
2018-04-22T02:10:48.441Z,14.70
2018-04-22T02:13:16.692Z,14.90
2018-04-22T02:15:44.935Z,15.00
2018-04-22T02:18:13.186Z,15.00
2018-04-22T02:20:42.209Z,14.90
2018-04-22T02:23:10.442Z,14.90
2018-04-22T02:25:38.661Z,14.70
2018-04-22T02:28:07.656Z,14.90
2018-04-22T02:30:35.873Z,14.80
2018-04-22T02:33:04.145Z,14.90
2018-04-22T02:35:33.117Z,15.00
2018-04-22T02:38:01.345Z,14.90
2018-04-22T02:40:29.569Z,14.90
2018-04-22T02:42:57.827Z,14.90
2018-04-22T02:45:26.025Z,14.90
2018-04-22T02:47:54.357Z,14.80
2018-04-22T02:50:22.549Z,14.80
2018-04-22T02:52:50.768Z,14.70
2018-04-22T02:55:19.761Z,14.60
2018-04-22T02:57:48.759Z,14.60
2018-04-22T03:00:16.999Z,14.60
2018-04-22T03:02:45.255Z,14.60
2018-04-22T03:05:14.289Z,14.50
2018-04-22T03:07:42.481Z,14.50
2018-04-22T03:10:10.752Z,14.50
2018-04-22T03:12:39.711Z,14.50
2018-04-22T03:15:08.002Z,14.50
2018-04-22T03:17:36.232Z,14.40
2018-04-22T03:20:04.446Z,14.40
2018-04-22T03:22:32.678Z,14.50
2018-04-22T03:25:01.657Z,14.40
2018-04-22T03:27:29.883Z,14.40
2018-04-22T03:29:58.873Z,14.40
2018-04-22T03:32:27.876Z,14.40
2018-04-22T03:34:56.093Z,14.40
2018-04-22T03:37:24.311Z,14.50
2018-04-22T03:39:52.540Z,14.50
2018-04-22T03:42:20.757Z,14.50
2018-04-22T03:44:48.985Z,14.40
2018-04-22T03:47:17.202Z,14.30
2018-04-22T03:49:45.436Z,14.40
2018-04-22T03:52:13.664Z,14.30
2018-04-22T03:54:41.888Z,14.30
2018-04-22T03:57:10.110Z,14.40
2018-04-22T03:59:38.357Z,14.40
2018-04-22T04:02:07.339Z,14.30
2018-04-22T04:04:35.555Z,14.30
2018-04-22T04:07:04.556Z,14.30
2018-04-22T04:09:33.538Z,14.40
2018-04-22T04:12:01.748Z,14.40
2018-04-22T04:14:30.741Z,14.40
2018-04-22T04:16:59.733Z,14.40
2018-04-22T04:19:39.753Z,14.40
2018-04-22T04:22:20.010Z,14.40
2018-04-22T04:25:11.856Z,14.40
2018-04-22T04:27:48.377Z,14.40
2018-04-22T04:30:16.619Z,14.30
2018-04-22T04:32:44.850Z,14.20
2018-04-22T04:35:13.071Z,14.40
2018-04-22T04:37:41.313Z,14.40
2018-04-22T04:40:09.538Z,14.30
2018-04-22T04:42:37.793Z,14.20
2018-04-22T04:45:06.745Z,14.30
2018-04-22T04:47:35.725Z,14.20
2018-04-22T04:50:03.945Z,14.20
2018-04-22T04:52:32.932Z,14.30
2018-04-22T04:55:01.161Z,14.30
2018-04-22T04:57:29.372Z,14.40
2018-04-22T04:59:57.597Z,14.30
2018-04-22T05:02:25.806Z,14.30
2018-04-22T05:04:54.798Z,14.20
2018-04-22T05:07:23.016Z,14.20
2018-04-22T05:09:51.238Z,14.20
2018-04-22T05:12:19.494Z,14.20
2018-04-22T05:14:47.734Z,14.30
2018-04-22T05:17:15.983Z,14.40
2018-04-22T05:19:44.209Z,14.50
2018-04-22T05:22:12.450Z,14.60
2018-04-22T05:24:40.672Z,14.80
2018-04-22T05:27:08.889Z,14.80
2018-04-22T05:29:37.882Z,14.80
2018-04-22T05:32:06.096Z,14.80
2018-04-22T05:34:34.320Z,15.00
2018-04-22T05:37:02.545Z,14.90
2018-04-22T05:39:30.768Z,14.70
2018-04-22T05:41:59.001Z,15.00
2018-04-22T05:44:27.230Z,15.40
2018-04-22T05:46:56.297Z,15.80
2018-04-22T05:49:24.512Z,15.80
2018-04-22T05:51:52.739Z,15.70
2018-04-22T05:54:20.974Z,15.40
2018-04-22T05:56:49.224Z,15.00
2018-04-22T05:59:17.506Z,14.90
2018-04-22T06:01:45.735Z,15.10
2018-04-22T06:04:13.968Z,15.10
2018-04-22T06:06:42.195Z,15.20
2018-04-22T06:09:10.404Z,15.20
2018-04-22T06:11:38.709Z,15.30
2018-04-22T06:14:07.697Z,15.50
2018-04-22T06:16:35.932Z,15.40
2018-04-22T06:19:04.264Z,15.50
2018-04-22T06:21:32.442Z,15.40
2018-04-22T06:24:00.670Z,15.70
2018-04-22T06:26:28.902Z,16.30
2018-04-22T06:28:57.123Z,16.00
2018-04-22T06:31:25.348Z,15.70
2018-04-22T06:33:54.321Z,16.10
2018-04-22T06:36:22.573Z,16.10
2018-04-22T06:38:50.797Z,16.10
2018-04-22T06:41:19.016Z,16.00
2018-04-22T06:43:48.051Z,16.10
2018-04-22T06:46:16.262Z,16.10
2018-04-22T06:48:45.292Z,15.90
2018-04-22T06:51:13.549Z,16.00
2018-04-22T06:53:42.652Z,16.00
2018-04-22T06:56:10.867Z,16.20
2018-04-22T06:58:39.117Z,16.30
2018-04-22T07:01:07.448Z,16.40
2018-04-22T07:03:35.640Z,17.00
2018-04-22T07:06:05.816Z,16.90
2018-04-22T07:08:34.033Z,16.80
2018-04-22T07:11:02.277Z,16.70
2018-04-22T07:13:31.289Z,16.60
2018-04-22T07:15:59.546Z,16.60
2018-04-22T07:18:28.541Z,16.60
2018-04-22T07:20:56.815Z,16.70
2018-04-22T07:23:25.034Z,17.60
2018-04-22T07:25:53.260Z,17.40
2018-04-22T07:28:22.256Z,16.90
2018-04-22T07:30:51.649Z,17.10
2018-04-22T07:33:19.920Z,17.00
2018-04-22T07:35:48.181Z,17.30
2018-04-22T07:38:16.426Z,16.90
2018-04-22T07:40:45.535Z,16.90
2018-04-22T07:43:13.843Z,16.90
2018-04-22T07:45:42.125Z,16.60
2018-04-22T07:48:10.348Z,16.60
2018-04-22T07:50:38.560Z,16.70
2018-04-22T07:53:06.773Z,16.90
2018-04-22T07:55:35.016Z,16.90
2018-04-22T07:58:04.016Z,17.10
2018-04-22T08:00:32.970Z,17.10
2018-04-22T08:03:02.187Z,17.00
2018-04-22T08:05:31.189Z,17.10
2018-04-22T08:08:00.200Z,17.20
2018-04-22T08:10:29.173Z,17.90
2018-04-22T08:12:57.998Z,17.80
2018-04-22T08:15:26.980Z,17.60
2018-04-22T08:17:55.736Z,17.60
2018-04-22T08:20:24.001Z,18.00
2018-04-22T08:22:52.915Z,18.90
2018-04-22T08:25:21.736Z,18.40
2018-04-22T08:27:49.997Z,18.30
2018-04-22T08:30:18.207Z,18.50
2018-04-22T08:32:47.680Z,18.30
2018-04-22T08:35:15.936Z,18.00
2018-04-22T08:37:44.146Z,17.70
2018-04-22T08:40:12.391Z,18.50
2018-04-22T08:42:41.362Z,19.40
2018-04-22T08:45:10.573Z,19.10
2018-04-22T08:47:39.552Z,19.00
2018-04-22T08:50:08.919Z,19.00
2018-04-22T08:52:37.716Z,18.70
2018-04-22T08:55:07.120Z,18.00
2018-04-22T08:57:35.350Z,18.00
2018-04-22T09:00:03.566Z,18.20
2018-04-22T09:02:31.778Z,18.30
2018-04-22T09:05:00.067Z,18.30
2018-04-22T09:07:29.039Z,18.40
2018-04-22T09:09:57.258Z,18.40
2018-04-22T09:12:28.457Z,18.50
2018-04-22T09:14:56.677Z,18.50
2018-04-22T09:17:24.902Z,18.70
2018-04-22T09:19:53.121Z,18.80
2018-04-22T09:22:22.273Z,19.00
2018-04-22T09:24:50.544Z,19.10
2018-04-22T09:27:18.729Z,19.10
2018-04-22T09:29:46.961Z,19.10
2018-04-22T09:32:15.201Z,19.10
2018-04-22T09:34:43.477Z,19.50
2018-04-22T09:37:11.756Z,19.60
2018-04-22T09:39:40.016Z,19.40
2018-04-22T09:42:08.266Z,19.20
2018-04-22T09:44:36.672Z,19.20
2018-04-22T09:47:05.597Z,19.40
2018-04-22T09:49:33.856Z,19.30
2018-04-22T09:52:02.076Z,19.30
2018-04-22T09:54:31.049Z,19.50
2018-04-22T09:56:59.293Z,19.50
2018-04-22T09:59:27.527Z,19.60
2018-04-22T10:01:55.730Z,19.70
2018-04-22T10:04:30.836Z,19.70
2018-04-22T10:06:59.260Z,19.70
2018-04-22T10:09:27.454Z,19.40
2018-04-22T10:11:55.705Z,19.70
2018-04-22T10:14:23.970Z,19.80
2018-04-22T10:16:52.190Z,19.80
2018-04-22T10:19:20.412Z,19.80
2018-04-22T10:21:49.405Z,20.20
2018-04-22T10:24:17.622Z,20.20
2018-04-22T10:26:45.849Z,20.60
2018-04-22T10:29:14.083Z,20.60
2018-04-22T10:31:43.099Z,20.50
2018-04-22T10:34:11.333Z,20.50
2018-04-22T10:36:39.708Z,20.30
2018-04-22T10:39:07.897Z,20.70
2018-04-22T10:41:36.142Z,20.70
2018-04-22T10:44:04.470Z,20.70
2018-04-22T10:46:32.656Z,20.60
2018-04-22T10:49:00.878Z,21.20
2018-04-22T10:51:29.090Z,21.20
2018-04-22T10:53:58.091Z,21.30
2018-04-22T10:56:26.297Z,21.30
2018-04-22T10:58:54.514Z,21.70
2018-04-22T11:01:22.744Z,22.20
2018-04-22T11:03:51.010Z,21.80
2018-04-22T11:06:19.221Z,21.40
2018-04-22T11:08:47.445Z,22.30
2018-04-22T11:11:15.734Z,22.30
2018-04-22T11:13:43.991Z,21.40
2018-04-22T11:16:12.254Z,21.70
2018-04-22T11:18:40.494Z,22.00
2018-04-22T11:21:08.791Z,22.30
2018-04-22T11:23:38.605Z,22.70
2018-04-22T11:26:07.071Z,22.60
2018-04-22T11:28:35.839Z,22.50
2018-04-22T11:31:06.797Z,22.70
2018-04-22T11:33:35.045Z,22.50
2018-04-22T11:36:03.290Z,22.30
2018-04-22T11:38:31.485Z,23.00
2018-04-22T11:41:00.448Z,22.90
2018-04-22T11:43:28.837Z,23.00
2018-04-22T11:45:57.060Z,23.50
2018-04-22T11:48:25.266Z,23.20
2018-04-22T11:50:54.248Z,22.50
2018-04-22T11:53:22.477Z,22.50
2018-04-22T11:55:51.490Z,23.00
2018-04-22T11:58:19.701Z,23.00
2018-04-22T12:00:49.417Z,23.00
2018-04-22T12:03:23.032Z,23.80
2018-04-22T12:05:51.981Z,24.00
2018-04-22T12:08:20.196Z,24.00
2018-04-22T12:10:49.199Z,24.10
2018-04-22T12:13:18.197Z,23.70
2018-04-22T12:15:47.197Z,24.10
2018-04-22T12:18:15.418Z,24.10
2018-04-22T12:20:43.708Z,24.10
2018-04-22T12:23:12.691Z,23.60
2018-04-22T12:25:41.694Z,23.00
2018-04-22T12:28:10.739Z,23.10
2018-04-22T12:30:38.972Z,23.10
2018-04-22T12:33:07.228Z,23.50
2018-04-22T12:35:35.556Z,23.50
2018-04-22T12:38:03.769Z,23.60
2018-04-22T12:40:31.973Z,24.00
2018-04-22T12:43:00.237Z,23.80
2018-04-22T12:45:28.479Z,23.60
2018-04-22T12:47:56.692Z,23.80
2018-04-22T12:50:24.914Z,23.80
2018-04-22T12:52:53.135Z,23.70
2018-04-22T12:55:21.340Z,23.50
2018-04-22T12:57:49.571Z,23.90
2018-04-22T13:00:18.545Z,24.20
2018-04-22T13:02:46.756Z,24.10
2018-04-22T13:05:15.753Z,24.50
2018-04-22T13:07:44.742Z,24.50
2018-04-22T13:10:12.965Z,24.40
2018-04-22T13:12:42.978Z,24.60
2018-04-22T13:15:12.093Z,24.60
2018-04-22T13:17:41.146Z,24.70
2018-04-22T13:20:09.369Z,24.70
2018-04-22T13:22:37.622Z,24.70
2018-04-22T13:25:05.823Z,24.10
2018-04-22T13:27:34.057Z,24.10
2018-04-22T13:30:02.260Z,23.60
2018-04-22T13:32:30.481Z,23.00
2018-04-22T13:34:58.748Z,23.60
2018-04-22T13:37:31.236Z,24.30
2018-04-22T13:40:00.837Z,23.60
2018-04-22T13:42:29.819Z,23.30
2018-04-22T13:44:58.055Z,23.40
2018-04-22T13:47:26.265Z,22.80
2018-04-22T13:49:54.489Z,23.10
2018-04-22T13:52:23.472Z,24.10
2018-04-22T13:54:51.778Z,24.10
2018-04-22T13:57:19.938Z,24.50
2018-04-22T13:59:48.141Z,23.20
2018-04-22T14:02:17.129Z,21.30
2018-04-22T14:04:45.348Z,21.30
2018-04-22T14:07:14.339Z,21.70
2018-04-22T14:09:42.714Z,21.70
2018-04-22T14:12:11.047Z,22.40
2018-04-22T14:14:39.287Z,22.00
2018-04-22T14:17:07.632Z,21.60
2018-04-22T14:19:35.849Z,21.70
2018-04-22T14:22:04.065Z,21.40
2018-04-22T14:24:32.295Z,21.10
2018-04-22T14:27:00.502Z,21.20
2018-04-22T14:29:28.730Z,21.00
2018-04-22T14:31:56.947Z,20.90
2018-04-22T14:34:25.170Z,20.80
2018-04-22T14:36:53.383Z,20.60
2018-04-22T14:39:23.125Z,20.70
2018-04-22T14:41:52.130Z,21.30
2018-04-22T14:44:32.957Z,21.50
2018-04-22T14:47:01.179Z,21.50
2018-04-22T14:49:29.417Z,21.10
2018-04-22T14:51:57.663Z,20.90
2018-04-22T14:54:25.861Z,20.90
2018-04-22T14:56:54.080Z,20.90
2018-04-22T14:59:22.296Z,21.20
2018-04-22T15:01:50.539Z,20.90
2018-04-22T15:04:18.728Z,21.30
2018-04-22T15:06:47.705Z,20.90
2018-04-22T15:09:15.921Z,20.90
2018-04-22T15:11:44.907Z,20.70
2018-04-22T15:14:13.931Z,20.80
2018-04-22T15:16:42.946Z,20.80
2018-04-22T15:19:11.931Z,20.80
2018-04-22T15:21:40.149Z,20.80
2018-04-22T15:24:08.385Z,20.70
2018-04-22T15:26:36.703Z,20.70
2018-04-22T15:29:05.757Z,21.40
2018-04-22T15:31:33.965Z,21.40
2018-04-22T15:34:02.187Z,21.40
2018-04-22T15:36:31.169Z,21.30
2018-04-22T15:38:59.788Z,21.30
2018-04-22T15:41:28.766Z,20.80
2018-04-22T15:43:56.985Z,20.80
2018-04-22T15:46:26.062Z,21.00
2018-04-22T15:48:54.304Z,21.00
2018-04-22T15:51:22.514Z,21.20
2018-04-22T15:53:56.615Z,21.40
2018-04-22T15:56:24.836Z,20.90
2018-04-22T15:58:53.049Z,20.90
2018-04-22T16:01:21.598Z,20.80
2018-04-22T16:03:51.406Z,20.70
2018-04-22T16:06:20.406Z,20.90
2018-04-22T16:08:49.378Z,21.00
2018-04-22T16:11:17.686Z,21.00
2018-04-22T16:13:46.676Z,20.70
2018-04-22T16:16:14.892Z,20.70
2018-04-22T16:18:43.908Z,20.80
2018-04-22T16:21:12.240Z,20.80
2018-04-22T16:23:41.157Z,20.80
2018-04-22T16:26:10.249Z,20.80
2018-04-22T16:28:38.661Z,20.70
2018-04-22T16:31:06.884Z,20.70
2018-04-22T16:33:35.552Z,20.70
2018-04-22T16:36:03.729Z,20.90
2018-04-22T16:38:31.954Z,20.80
2018-04-22T16:41:00.207Z,20.70
2018-04-22T16:43:28.413Z,20.80
2018-04-22T16:45:57.396Z,20.70
2018-04-22T16:48:25.721Z,20.70
2018-04-22T16:50:54.812Z,20.60
2018-04-22T16:53:23.922Z,20.70
2018-04-22T16:55:52.950Z,20.70
2018-04-22T16:58:21.133Z,20.60
2018-04-22T17:00:50.118Z,20.70
2018-04-22T17:03:18.441Z,20.60
2018-04-22T17:05:46.656Z,20.70
2018-04-22T17:08:14.877Z,20.70
2018-04-22T17:10:43.124Z,20.80
2018-04-22T17:13:11.508Z,20.90
2018-04-22T17:15:41.877Z,20.80
2018-04-22T17:18:10.151Z,20.90
2018-04-22T17:20:38.392Z,20.80
2018-04-22T17:23:07.422Z,20.80
2018-04-22T17:25:35.657Z,20.80
2018-04-22T17:28:03.868Z,20.80
2018-04-22T17:30:32.850Z,20.80
2018-04-22T17:33:01.178Z,20.80
2018-04-22T17:35:29.492Z,20.80
2018-04-22T17:37:57.850Z,20.80
2018-04-22T17:40:26.846Z,20.70
2018-04-22T17:42:55.829Z,20.70
2018-04-22T17:45:24.057Z,20.80
2018-04-22T17:47:53.025Z,20.80
2018-04-22T17:50:21.251Z,20.80
2018-04-22T17:52:50.244Z,20.80
2018-04-22T17:55:19.228Z,20.80
2018-04-22T17:57:49.119Z,20.80
2018-04-22T18:00:17.365Z,20.80
2018-04-22T18:02:45.653Z,20.80
2018-04-22T18:05:14.642Z,20.80
2018-04-22T18:07:42.864Z,20.80
2018-04-22T18:10:11.869Z,20.90
2018-04-22T18:12:40.860Z,20.90
2018-04-22T18:15:10.513Z,20.90
2018-04-22T18:17:38.742Z,20.90
2018-04-22T18:20:07.550Z,20.90
2018-04-22T18:22:35.836Z,20.80
2018-04-22T18:25:04.037Z,20.80
2018-04-22T18:27:33.021Z,20.90
2018-04-22T18:30:01.569Z,20.90
2018-04-22T18:32:31.257Z,20.90
2018-04-22T18:35:02.221Z,20.90
2018-04-22T18:37:31.193Z,21.00
2018-04-22T18:40:00.173Z,21.00
2018-04-22T18:42:28.389Z,21.00
2018-04-22T18:44:57.392Z,21.10
2018-04-22T18:47:25.605Z,21.10
2018-04-22T18:49:53.830Z,20.90
2018-04-22T18:52:22.040Z,21.00
2018-04-22T18:54:50.246Z,21.10
2018-04-22T18:57:18.460Z,21.00
2018-04-22T18:59:53.075Z,21.00
2018-04-22T19:02:21.262Z,21.10
2018-04-22T19:04:49.496Z,21.10
2018-04-22T19:07:18.253Z,21.20
2018-04-22T19:09:46.460Z,21.20
2018-04-22T19:12:15.469Z,21.10
2018-04-22T19:14:44.467Z,21.20
2018-04-22T19:17:13.777Z,21.20
2018-04-22T19:19:45.880Z,21.20
2018-04-22T19:22:14.198Z,21.20
2018-04-22T19:24:42.428Z,21.30
2018-04-22T19:27:10.649Z,21.20
2018-04-22T19:29:39.697Z,21.20
2018-04-22T19:32:08.068Z,21.20
2018-04-22T19:34:36.507Z,21.20
2018-04-22T19:37:04.718Z,21.20
2018-04-22T19:39:33.705Z,21.20
2018-04-22T19:42:02.463Z,21.10
2018-04-22T19:44:30.693Z,21.10
2018-04-22T19:46:58.916Z,21.20
2018-04-22T19:49:30.416Z,21.20
2018-04-22T19:51:59.747Z,21.20
2018-04-22T19:54:29.309Z,21.30
2018-04-22T19:57:00.327Z,21.20
2018-04-22T19:59:31.562Z,21.30
2018-04-22T20:02:02.387Z,21.20
2018-04-22T20:04:33.294Z,21.20
2018-04-22T20:07:01.602Z,21.20
2018-04-22T20:09:30.584Z,21.30
2018-04-22T20:11:58.861Z,21.20
2018-04-22T20:14:27.102Z,21.30
2018-04-22T20:16:55.363Z,21.30
2018-04-22T20:19:25.321Z,21.30
2018-04-22T20:22:01.137Z,21.30
2018-04-22T20:24:29.415Z,21.30
2018-04-22T20:26:58.540Z,21.30
2018-04-22T20:29:32.138Z,21.30
2018-04-22T20:32:01.845Z,21.30
2018-04-22T20:34:30.568Z,21.30
2018-04-22T20:36:58.818Z,21.30
2018-04-22T20:39:33.286Z,21.40
2018-04-22T20:42:02.627Z,21.40
2018-04-22T20:44:31.486Z,21.40
2018-04-22T20:46:59.769Z,21.40
2018-04-22T20:49:36.616Z,21.40
2018-04-22T20:52:04.830Z,21.30
2018-04-22T20:54:33.566Z,21.30
2018-04-22T20:57:02.542Z,21.20
2018-04-22T20:59:30.756Z,21.20
2018-04-22T21:01:58.967Z,21.20
2018-04-22T21:04:27.201Z,21.20
2018-04-22T21:06:55.434Z,21.20
2018-04-22T21:09:23.649Z,21.10
2018-04-22T21:11:52.653Z,20.90
2018-04-22T21:14:22.649Z,20.90
2018-04-22T21:16:50.937Z,20.90
2018-04-22T21:19:19.135Z,20.80
2018-04-22T21:21:48.235Z,20.80
2018-04-22T21:24:16.438Z,20.90
2018-04-22T21:26:45.452Z,21.00
2018-04-22T21:29:13.681Z,21.00
2018-04-22T21:31:41.928Z,20.90
2018-04-22T21:34:10.921Z,20.80
2018-04-22T21:36:39.199Z,20.80
2018-04-22T21:39:07.524Z,20.80
2018-04-22T21:41:36.517Z,20.70
2018-04-22T21:44:05.527Z,20.80
2018-04-22T21:46:34.497Z,20.90
2018-04-22T21:49:02.721Z,20.90
2018-04-22T21:51:31.697Z,20.80
2018-04-22T21:53:59.909Z,20.80
2018-04-22T21:56:28.892Z,20.70
2018-04-22T21:58:57.122Z,20.70
2018-04-22T22:01:25.413Z,20.70
2018-04-22T22:03:53.676Z,20.70
2018-04-22T22:06:21.965Z,20.70
2018-04-22T22:08:50.993Z,20.60
2018-04-22T22:11:19.969Z,20.60
2018-04-22T22:13:48.184Z,20.60
2018-04-22T22:16:16.400Z,20.70
2018-04-22T22:18:44.619Z,20.70
2018-04-22T22:21:12.844Z,20.80
2018-04-22T22:23:41.827Z,20.90
2018-04-22T22:26:10.053Z,20.90
2018-04-22T22:28:38.332Z,20.90
2018-04-22T22:31:06.613Z,21.00
2018-04-22T22:33:35.602Z,21.10
2018-04-22T22:36:04.583Z,21.10
2018-04-22T22:38:32.797Z,21.10
2018-04-22T22:41:01.772Z,21.00
2018-04-22T22:43:29.989Z,21.10
2018-04-22T22:45:58.981Z,21.20
2018-04-22T22:48:27.207Z,21.20
2018-04-22T22:50:56.184Z,21.20
2018-04-22T22:53:24.405Z,21.20
2018-04-22T22:55:52.614Z,21.00
2018-04-22T22:58:20.832Z,20.90
2018-04-22T23:00:49.042Z,20.70
2018-04-22T23:03:17.321Z,20.80
2018-04-22T23:05:45.543Z,20.60
2018-04-22T23:08:13.794Z,20.40
2018-04-22T23:10:41.995Z,20.40
2018-04-22T23:13:10.970Z,20.40
2018-04-22T23:15:39.296Z,20.40
2018-04-22T23:18:08.287Z,20.30
2018-04-22T23:20:36.605Z,20.30
2018-04-22T23:23:05.610Z,20.80
2018-04-22T23:25:34.599Z,20.80
2018-04-22T23:28:03.598Z,20.70
2018-04-22T23:30:31.808Z,20.70
2018-04-22T23:33:00.025Z,20.40
2018-04-22T23:35:28.247Z,20.30
2018-04-22T23:37:56.482Z,20.30
2018-04-22T23:40:24.692Z,20.20
2018-04-22T23:42:52.917Z,20.10
2018-04-22T23:45:21.144Z,20.10
2018-04-22T23:47:49.345Z,20.10
2018-04-22T23:50:17.570Z,20.00
2018-04-22T23:52:45.809Z,19.90
2018-04-22T23:55:14.016Z,19.80
2018-04-22T23:57:42.230Z,19.80
